EZY151Z EGGD-EGPH
Flight info
| Callsign | EZY151Z |
|---|---|
| Flight time | 0h 54m |
| Altitude | 26000 |
| Route | BCN P69 DIZIM DCT KISWO/N0423F270 DCT AVTIC DCT ANJAK/N0428F280 N38 NOKIN UP16 RIBEL DCT INPIP |
| Aircraft | A320/M-SDE3FGHIRWY/LB1 |
Departure
| Time | 2026-04-26 07:46 |
|---|---|
| Airport | Bristol Airport (EGGD) |
Arrival
| Time | 2026-04-26 08:40 |
|---|---|
| Airport | Edinburgh Airport (EGPH) |
| Time | Latitude | Longitude | Altitude | Speed | Heading |
|---|---|---|---|---|---|
| 2026-04-26 07:25 | 51.38548 | -2.70348 | 601 ft | 0 kts | 356° |
| 2026-04-26 07:37 | 51.38535 | -2.70347 | 601 ft | 3 kts | 356° |
| 2026-04-26 07:37 | 51.38515 | -2.70345 | 602 ft | 3 kts | 356° |
| 2026-04-26 07:38 | 51.38502 | -2.70343 | 602 ft | 3 kts | 4° |
| 2026-04-26 07:38 | 51.38490 | -2.70351 | 603 ft | 3 kts | 71° |
| 2026-04-26 07:38 | 51.38485 | -2.70376 | 603 ft | 1 kts | 77° |
| 2026-04-26 07:38 | 51.38482 | -2.70402 | 619 ft | 3 kts | 77° |
| 2026-04-26 07:39 | 51.38477 | -2.70434 | 617 ft | 3 kts | 77° |
| 2026-04-26 07:39 | 51.38473 | -2.70465 | 614 ft | 3 kts | 77° |
| 2026-04-26 07:39 | 51.38470 | -2.70496 | 621 ft | 3 kts | 90° |
| 2026-04-26 07:39 | 51.38470 | -2.70526 | 619 ft | 2 kts | 85° |
| 2026-04-26 07:40 | 51.38469 | -2.70537 | 620 ft | 1 kts | 85° |
| 2026-04-26 07:40 | 51.38469 | -2.70538 | 620 ft | 1 kts | 85° |
| 2026-04-26 07:42 | 51.38467 | -2.70535 | 620 ft | 1 kts | 115° |
| 2026-04-26 07:42 | 51.38454 | -2.70529 | 613 ft | 4 kts | 158° |
| 2026-04-26 07:42 | 51.38385 | -2.70496 | 615 ft | 16 kts | 165° |
| 2026-04-26 07:42 | 51.38318 | -2.70568 | 611 ft | 15 kts | 266° |
| 2026-04-26 07:43 | 51.38311 | -2.70746 | 606 ft | 18 kts | 265° |
| 2026-04-26 07:43 | 51.38304 | -2.70964 | 603 ft | 21 kts | 268° |
| 2026-04-26 07:43 | 51.38293 | -2.71227 | 602 ft | 28 kts | 266° |
| 2026-04-26 07:43 | 51.38279 | -2.71591 | 614 ft | 36 kts | 266° |
| 2026-04-26 07:44 | 51.38262 | -2.72016 | 618 ft | 41 kts | 266° |
| 2026-04-26 07:44 | 51.38245 | -2.72486 | 624 ft | 42 kts | 266° |
| 2026-04-26 07:44 | 51.38228 | -2.72941 | 624 ft | 41 kts | 266° |
| 2026-04-26 07:44 | 51.38218 | -2.73206 | 632 ft | 11 kts | 271° |
| 2026-04-26 07:45 | 51.38223 | -2.73284 | 629 ft | 2 kts | 217° |
| 2026-04-26 07:45 | 51.38219 | -2.73275 | 630 ft | 0 kts | 133° |
| 2026-04-26 07:45 | 51.38216 | -2.73261 | 627 ft | 5 kts | 110° |
| 2026-04-26 07:45 | 51.38217 | -2.73174 | 628 ft | 9 kts | 87° |
| 2026-04-26 07:46 | 51.38225 | -2.72994 | 623 ft | 39 kts | 86° |
| 2026-04-26 07:46 | 51.38257 | -2.72162 | 621 ft | 108 kts | 86° |
| 2026-04-26 07:46 | 51.38315 | -2.70669 | 649 ft | 154 kts | 88° |
| 2026-04-26 07:46 | 51.38364 | -2.68952 | 1294 ft | 155 kts | 88° |
| 2026-04-26 07:47 | 51.38422 | -2.67229 | 1902 ft | 163 kts | 89° |
| 2026-04-26 07:47 | 51.38494 | -2.65301 | 2208 ft | 184 kts | 89° |
| 2026-04-26 07:47 | 51.38571 | -2.63070 | 2474 ft | 217 kts | 87° |
| 2026-04-26 07:47 | 51.38655 | -2.60523 | 2991 ft | 241 kts | 89° |
| 2026-04-26 07:48 | 51.38770 | -2.57745 | 3674 ft | 256 kts | 83° |
| 2026-04-26 07:48 | 51.39417 | -2.55079 | 4535 ft | 266 kts | 52° |
| 2026-04-26 07:48 | 51.40929 | -2.53370 | 5346 ft | 274 kts | 18° |
| 2026-04-26 07:48 | 51.42828 | -2.53307 | 6252 ft | 278 kts | 343° |
| 2026-04-26 07:49 | 51.44456 | -2.54930 | 7153 ft | 279 kts | 311° |
| 2026-04-26 07:49 | 51.45565 | -2.57490 | 8045 ft | 280 kts | 297° |
| 2026-04-26 07:49 | 51.46445 | -2.60300 | 8923 ft | 283 kts | 294° |
| 2026-04-26 07:50 | 51.48204 | -2.65967 | 10566 ft | 290 kts | 297° |
| 2026-04-26 07:50 | 51.49239 | -2.68918 | 10844 ft | 314 kts | 299° |
| 2026-04-26 07:50 | 51.50415 | -2.72025 | 11106 ft | 336 kts | 301° |
| 2026-04-26 07:50 | 51.51693 | -2.75225 | 11688 ft | 344 kts | 302° |
| 2026-04-26 07:51 | 51.53021 | -2.78448 | 12389 ft | 348 kts | 302° |
| 2026-04-26 07:51 | 51.54190 | -2.81253 | 13008 ft | 352 kts | 302° |
| 2026-04-26 07:51 | 51.55590 | -2.84612 | 13772 ft | 356 kts | 302° |
| 2026-04-26 07:51 | 51.56969 | -2.87943 | 14445 ft | 359 kts | 301° |
| 2026-04-26 07:52 | 51.58358 | -2.91320 | 15086 ft | 363 kts | 301° |
| 2026-04-26 07:52 | 51.59751 | -2.94728 | 15716 ft | 366 kts | 301° |
| 2026-04-26 07:52 | 51.61138 | -2.98128 | 16334 ft | 370 kts | 301° |
| 2026-04-26 07:52 | 51.62556 | -3.01612 | 16964 ft | 373 kts | 301° |
| 2026-04-26 07:53 | 51.63983 | -3.05120 | 17566 ft | 376 kts | 301° |
| 2026-04-26 07:53 | 51.65424 | -3.08672 | 18180 ft | 380 kts | 301° |
| 2026-04-26 07:53 | 51.66877 | -3.12258 | 18777 ft | 383 kts | 301° |
| 2026-04-26 07:53 | 51.68337 | -3.15863 | 19306 ft | 386 kts | 301° |
| 2026-04-26 07:54 | 51.69982 | -3.19312 | 19861 ft | 391 kts | 313° |
| 2026-04-26 07:54 | 51.72080 | -3.22049 | 20396 ft | 396 kts | 327° |
| 2026-04-26 07:54 | 51.74596 | -3.23920 | 20961 ft | 402 kts | 341° |
| 2026-04-26 07:54 | 51.77365 | -3.24746 | 21520 ft | 408 kts | 355° |
| 2026-04-26 07:55 | 51.80215 | -3.24456 | 22053 ft | 413 kts | 7° |
| 2026-04-26 07:55 | 51.83062 | -3.23750 | 22574 ft | 416 kts | 7° |
| 2026-04-26 07:55 | 51.85929 | -3.23031 | 23083 ft | 418 kts | 7° |
| 2026-04-26 07:55 | 51.88818 | -3.22309 | 23580 ft | 421 kts | 6° |
| 2026-04-26 07:56 | 51.91728 | -3.21585 | 24032 ft | 424 kts | 6° |
| 2026-04-26 07:56 | 51.94653 | -3.20858 | 24426 ft | 426 kts | 6° |
| 2026-04-26 07:56 | 51.97595 | -3.20131 | 24813 ft | 428 kts | 6° |
| 2026-04-26 07:56 | 52.00545 | -3.19404 | 25191 ft | 431 kts | 6° |
| 2026-04-26 07:57 | 52.03517 | -3.18681 | 25556 ft | 432 kts | 4° |
| 2026-04-26 07:57 | 52.06478 | -3.18340 | 25908 ft | 433 kts | 360° |
| 2026-04-26 07:57 | 52.09496 | -3.18103 | 26266 ft | 435 kts | 360° |
| 2026-04-26 07:57 | 52.12528 | -3.17873 | 26630 ft | 437 kts | 359° |
| 2026-04-26 07:58 | 52.15574 | -3.17645 | 26976 ft | 439 kts | 359° |
| 2026-04-26 07:58 | 52.18634 | -3.17413 | 27321 ft | 441 kts | 359° |
| 2026-04-26 07:58 | 52.21712 | -3.17181 | 27655 ft | 443 kts | 359° |
| 2026-04-26 07:58 | 52.24802 | -3.16948 | 28001 ft | 445 kts | 359° |
| 2026-04-26 07:59 | 52.27902 | -3.16716 | 28329 ft | 447 kts | 359° |
| 2026-04-26 07:59 | 52.31015 | -3.16485 | 28644 ft | 449 kts | 359° |
| 2026-04-26 07:59 | 52.34147 | -3.16244 | 28954 ft | 451 kts | 359° |
| 2026-04-26 07:59 | 52.37292 | -3.15995 | 29255 ft | 453 kts | 359° |
| 2026-04-26 08:00 | 52.40448 | -3.15742 | 29546 ft | 455 kts | 359° |
| 2026-04-26 08:00 | 52.43617 | -3.15491 | 29841 ft | 456 kts | 359° |
| 2026-04-26 08:00 | 52.46794 | -3.15245 | 30119 ft | 458 kts | 359° |
| 2026-04-26 08:00 | 52.49984 | -3.14999 | 30383 ft | 459 kts | 359° |
| 2026-04-26 08:01 | 52.53185 | -3.14747 | 30603 ft | 461 kts | 359° |
| 2026-04-26 08:01 | 52.56349 | -3.14493 | 30843 ft | 461 kts | 359° |
| 2026-04-26 08:01 | 52.59553 | -3.14235 | 31152 ft | 460 kts | 359° |
| 2026-04-26 08:01 | 52.62750 | -3.13980 | 31453 ft | 459 kts | 359° |
| 2026-04-26 08:02 | 52.65937 | -3.13731 | 31756 ft | 458 kts | 359° |
| 2026-04-26 08:02 | 52.69126 | -3.13396 | 32049 ft | 459 kts | 3° |
| 2026-04-26 08:02 | 52.72275 | -3.12373 | 32341 ft | 463 kts | 12° |
| 2026-04-26 08:02 | 52.75284 | -3.10573 | 32621 ft | 467 kts | 21° |
| 2026-04-26 08:03 | 52.78235 | -3.08268 | 32909 ft | 467 kts | 22° |
| 2026-04-26 08:03 | 52.81168 | -3.05965 | 33201 ft | 467 kts | 22° |
| 2026-04-26 08:03 | 52.84101 | -3.03663 | 33487 ft | 466 kts | 22° |
| 2026-04-26 08:03 | 52.87026 | -3.01370 | 33778 ft | 465 kts | 21° |
| 2026-04-26 08:04 | 52.89966 | -2.99136 | 34066 ft | 463 kts | 18° |
| 2026-04-26 08:04 | 52.92976 | -2.97282 | 34358 ft | 461 kts | 16° |
| 2026-04-26 08:04 | 52.95991 | -2.95449 | 34619 ft | 460 kts | 16° |
| 2026-04-26 08:04 | 52.98710 | -2.93792 | 34844 ft | 460 kts | 16° |
| 2026-04-26 08:05 | 53.01711 | -2.91955 | 35084 ft | 459 kts | 16° |
| 2026-04-26 08:05 | 53.04708 | -2.90113 | 35282 ft | 460 kts | 16° |
| 2026-04-26 08:05 | 53.10666 | -2.86450 | 35328 ft | 458 kts | 16° |
| 2026-04-26 08:06 | 53.16647 | -2.82752 | 35331 ft | 458 kts | 16° |
| 2026-04-26 08:06 | 53.22626 | -2.79038 | 35328 ft | 458 kts | 17° |
| 2026-04-26 08:07 | 53.28590 | -2.75313 | 35328 ft | 458 kts | 17° |
| 2026-04-26 08:07 | 53.34558 | -2.71590 | 35331 ft | 458 kts | 16° |
| 2026-04-26 08:08 | 53.40526 | -2.67865 | 35333 ft | 458 kts | 16° |
| 2026-04-26 08:08 | 53.46490 | -2.64121 | 35336 ft | 458 kts | 16° |
| 2026-04-26 08:09 | 53.52446 | -2.60369 | 35335 ft | 457 kts | 16° |
| 2026-04-26 08:09 | 53.58413 | -2.56597 | 35337 ft | 457 kts | 17° |
| 2026-04-26 08:10 | 53.64324 | -2.52839 | 35334 ft | 457 kts | 17° |
| 2026-04-26 08:10 | 53.70284 | -2.49059 | 35332 ft | 457 kts | 16° |
| 2026-04-26 08:11 | 53.76243 | -2.45271 | 35334 ft | 457 kts | 16° |
| 2026-04-26 08:11 | 53.82198 | -2.41474 | 35341 ft | 458 kts | 17° |
| 2026-04-26 08:12 | 53.88155 | -2.37652 | 35349 ft | 458 kts | 17° |
| 2026-04-26 08:12 | 53.94111 | -2.33822 | 35338 ft | 457 kts | 17° |
| 2026-04-26 08:13 | 54.00229 | -2.31458 | 35339 ft | 446 kts | 358° |
| 2026-04-26 08:13 | 54.06284 | -2.32458 | 35095 ft | 436 kts | 340° |
| 2026-04-26 08:14 | 54.09136 | -2.34138 | 34778 ft | 432 kts | 333° |
| 2026-04-26 08:14 | 54.11915 | -2.36082 | 34420 ft | 432 kts | 333° |
| 2026-04-26 08:14 | 54.14700 | -2.38028 | 34015 ft | 432 kts | 333° |
| 2026-04-26 08:14 | 54.17489 | -2.39971 | 33610 ft | 433 kts | 333° |
| 2026-04-26 08:15 | 54.20292 | -2.41916 | 33209 ft | 433 kts | 333° |
| 2026-04-26 08:15 | 54.23090 | -2.43854 | 32812 ft | 434 kts | 333° |
| 2026-04-26 08:15 | 54.25891 | -2.45796 | 32410 ft | 435 kts | 333° |
| 2026-04-26 08:15 | 54.28663 | -2.47727 | 32026 ft | 434 kts | 333° |
| 2026-04-26 08:16 | 54.31458 | -2.49681 | 31646 ft | 432 kts | 333° |
| 2026-04-26 08:16 | 54.34229 | -2.51625 | 31265 ft | 429 kts | 333° |
| 2026-04-26 08:16 | 54.36990 | -2.53567 | 30892 ft | 427 kts | 333° |
| 2026-04-26 08:16 | 54.39727 | -2.55491 | 30526 ft | 424 kts | 333° |
| 2026-04-26 08:17 | 54.42455 | -2.57407 | 30118 ft | 421 kts | 333° |
| 2026-04-26 08:17 | 54.45159 | -2.59310 | 29695 ft | 419 kts | 333° |
| 2026-04-26 08:17 | 54.47849 | -2.61206 | 29254 ft | 417 kts | 333° |
| 2026-04-26 08:17 | 54.50525 | -2.63094 | 28777 ft | 414 kts | 333° |
| 2026-04-26 08:18 | 54.53180 | -2.64971 | 28317 ft | 412 kts | 333° |
| 2026-04-26 08:18 | 54.55792 | -2.66824 | 27862 ft | 409 kts | 333° |
| 2026-04-26 08:18 | 54.58423 | -2.68692 | 27422 ft | 407 kts | 333° |
| 2026-04-26 08:18 | 54.61040 | -2.70551 | 26982 ft | 405 kts | 333° |
| 2026-04-26 08:19 | 54.63637 | -2.72398 | 26563 ft | 403 kts | 333° |
| 2026-04-26 08:19 | 54.66226 | -2.74244 | 26126 ft | 401 kts | 334° |
| 2026-04-26 08:19 | 54.68799 | -2.76082 | 25704 ft | 399 kts | 334° |
| 2026-04-26 08:19 | 54.71369 | -2.77919 | 25290 ft | 398 kts | 334° |
| 2026-04-26 08:20 | 54.73918 | -2.79741 | 24879 ft | 396 kts | 334° |
| 2026-04-26 08:20 | 54.76463 | -2.81557 | 24477 ft | 394 kts | 334° |
| 2026-04-26 08:20 | 54.78145 | -2.82759 | 24208 ft | 393 kts | 334° |
| 2026-04-26 08:20 | 54.80671 | -2.84570 | 23803 ft | 392 kts | 334° |
| 2026-04-26 08:21 | 54.83183 | -2.86377 | 23319 ft | 390 kts | 334° |
| 2026-04-26 08:21 | 54.85682 | -2.88177 | 22866 ft | 388 kts | 334° |
| 2026-04-26 08:21 | 54.88163 | -2.89969 | 22408 ft | 385 kts | 334° |
| 2026-04-26 08:21 | 54.90635 | -2.91759 | 21956 ft | 383 kts | 334° |
| 2026-04-26 08:22 | 54.93090 | -2.93539 | 21515 ft | 381 kts | 334° |
| 2026-04-26 08:22 | 54.95530 | -2.95304 | 21075 ft | 378 kts | 334° |
| 2026-04-26 08:22 | 54.97956 | -2.97059 | 20647 ft | 376 kts | 334° |
| 2026-04-26 08:22 | 55.00337 | -2.98783 | 20234 ft | 374 kts | 334° |
| 2026-04-26 08:23 | 55.02730 | -3.00521 | 19826 ft | 372 kts | 334° |
| 2026-04-26 08:23 | 55.05122 | -3.02262 | 19397 ft | 370 kts | 334° |
| 2026-04-26 08:23 | 55.07493 | -3.03991 | 19003 ft | 368 kts | 334° |
| 2026-04-26 08:23 | 55.09855 | -3.05717 | 18598 ft | 367 kts | 334° |
| 2026-04-26 08:24 | 55.12203 | -3.07434 | 18146 ft | 365 kts | 334° |
| 2026-04-26 08:24 | 55.14537 | -3.09139 | 17696 ft | 363 kts | 334° |
| 2026-04-26 08:24 | 55.16859 | -3.10838 | 17248 ft | 361 kts | 334° |
| 2026-04-26 08:24 | 55.19177 | -3.12535 | 16810 ft | 359 kts | 334° |
| 2026-04-26 08:25 | 55.21483 | -3.14223 | 16376 ft | 358 kts | 334° |
| 2026-04-26 08:25 | 55.23775 | -3.15905 | 15943 ft | 356 kts | 334° |
| 2026-04-26 08:25 | 55.26058 | -3.17584 | 15522 ft | 355 kts | 334° |
| 2026-04-26 08:25 | 55.28309 | -3.19192 | 15100 ft | 354 kts | 339° |
| 2026-04-26 08:26 | 55.30723 | -3.20060 | 14689 ft | 356 kts | 354° |
| 2026-04-26 08:26 | 55.33200 | -3.19914 | 14291 ft | 357 kts | 3° |
| 2026-04-26 08:26 | 55.35672 | -3.19522 | 13856 ft | 355 kts | 3° |
| 2026-04-26 08:26 | 55.38130 | -3.19139 | 13395 ft | 353 kts | 3° |
| 2026-04-26 08:27 | 55.40565 | -3.18762 | 12952 ft | 350 kts | 2° |
| 2026-04-26 08:27 | 55.42984 | -3.18390 | 12510 ft | 347 kts | 3° |
| 2026-04-26 08:27 | 55.45385 | -3.18015 | 12071 ft | 345 kts | 3° |
| 2026-04-26 08:27 | 55.47768 | -3.17642 | 11642 ft | 342 kts | 3° |
| 2026-04-26 08:28 | 55.50106 | -3.17273 | 11218 ft | 340 kts | 3° |
| 2026-04-26 08:28 | 55.52445 | -3.16900 | 10787 ft | 332 kts | 2° |
| 2026-04-26 08:28 | 55.54691 | -3.16541 | 10377 ft | 317 kts | 2° |
| 2026-04-26 08:28 | 55.56859 | -3.16198 | 9938 ft | 304 kts | 2° |
| 2026-04-26 08:29 | 55.58933 | -3.15870 | 9493 ft | 297 kts | 3° |
| 2026-04-26 08:29 | 55.60989 | -3.15543 | 9049 ft | 297 kts | 3° |
| 2026-04-26 08:29 | 55.63050 | -3.15216 | 8619 ft | 296 kts | 3° |
| 2026-04-26 08:29 | 55.65066 | -3.14894 | 8264 ft | 293 kts | 3° |
| 2026-04-26 08:30 | 55.67088 | -3.14571 | 7912 ft | 290 kts | 3° |
| 2026-04-26 08:30 | 55.69087 | -3.14256 | 7563 ft | 287 kts | 3° |
| 2026-04-26 08:30 | 55.71066 | -3.13948 | 7249 ft | 283 kts | 3° |
| 2026-04-26 08:30 | 55.73016 | -3.13646 | 7001 ft | 279 kts | 3° |
| 2026-04-26 08:31 | 55.74920 | -3.13288 | 6759 ft | 272 kts | 9° |
| 2026-04-26 08:31 | 55.76698 | -3.12269 | 6499 ft | 266 kts | 25° |
| 2026-04-26 08:31 | 55.78333 | -3.10796 | 6241 ft | 260 kts | 26° |
| 2026-04-26 08:31 | 55.79934 | -3.09362 | 5988 ft | 257 kts | 26° |
| 2026-04-26 08:32 | 55.81529 | -3.07939 | 5727 ft | 255 kts | 26° |
| 2026-04-26 08:32 | 55.83092 | -3.06545 | 5472 ft | 254 kts | 26° |
| 2026-04-26 08:32 | 55.84680 | -3.05192 | 5214 ft | 252 kts | 20° |
| 2026-04-26 08:32 | 55.86346 | -3.04391 | 4979 ft | 245 kts | 8° |
| 2026-04-26 08:33 | 55.88008 | -3.03870 | 4709 ft | 240 kts | 9° |
| 2026-04-26 08:33 | 55.89644 | -3.03344 | 4451 ft | 238 kts | 9° |
| 2026-04-26 08:33 | 55.91269 | -3.02820 | 4196 ft | 234 kts | 9° |
| 2026-04-26 08:33 | 55.92853 | -3.02312 | 4005 ft | 228 kts | 9° |
| 2026-04-26 08:34 | 55.94401 | -3.01906 | 3827 ft | 221 kts | 1° |
| 2026-04-26 08:34 | 55.95909 | -3.02024 | 3647 ft | 214 kts | 350° |
| 2026-04-26 08:34 | 55.97364 | -3.02370 | 3466 ft | 208 kts | 351° |
| 2026-04-26 08:34 | 55.98742 | -3.02688 | 3332 ft | 199 kts | 351° |
| 2026-04-26 08:35 | 56.00092 | -3.02996 | 3144 ft | 193 kts | 351° |
| 2026-04-26 08:35 | 56.01362 | -3.03620 | 3036 ft | 186 kts | 332° |
| 2026-04-26 08:35 | 56.02371 | -3.04850 | 2999 ft | 172 kts | 314° |
| 2026-04-26 08:35 | 56.03088 | -3.06498 | 3009 ft | 166 kts | 297° |
| 2026-04-26 08:36 | 56.03493 | -3.08402 | 3013 ft | 163 kts | 280° |
| 2026-04-26 08:36 | 56.03571 | -3.10409 | 3016 ft | 161 kts | 264° |
| 2026-04-26 08:36 | 56.03324 | -3.12349 | 3014 ft | 160 kts | 247° |
| 2026-04-26 08:36 | 56.02796 | -3.14100 | 2909 ft | 160 kts | 238° |
| 2026-04-26 08:37 | 56.02224 | -3.15804 | 2742 ft | 160 kts | 238° |
| 2026-04-26 08:37 | 56.01654 | -3.17504 | 2532 ft | 159 kts | 238° |
| 2026-04-26 08:37 | 56.01092 | -3.19176 | 2347 ft | 159 kts | 238° |
| 2026-04-26 08:37 | 56.00523 | -3.20870 | 2114 ft | 159 kts | 238° |
| 2026-04-26 08:38 | 55.99955 | -3.22558 | 1885 ft | 159 kts | 238° |
| 2026-04-26 08:38 | 55.99387 | -3.24244 | 1667 ft | 158 kts | 238° |
| 2026-04-26 08:38 | 55.98824 | -3.25913 | 1442 ft | 151 kts | 238° |
| 2026-04-26 08:38 | 55.98299 | -3.27470 | 1186 ft | 142 kts | 238° |
| 2026-04-26 08:39 | 55.97797 | -3.28971 | 983 ft | 140 kts | 239° |
| 2026-04-26 08:39 | 55.97298 | -3.30452 | 805 ft | 139 kts | 238° |
| 2026-04-26 08:39 | 55.96796 | -3.31925 | 638 ft | 139 kts | 239° |
| 2026-04-26 08:39 | 55.96299 | -3.33397 | 436 ft | 138 kts | 238° |
| 2026-04-26 08:40 | 55.95810 | -3.34845 | 267 ft | 137 kts | 239° |
| 2026-04-26 08:40 | 55.95319 | -3.36300 | 112 ft | 134 kts | 239° |
| 2026-04-26 08:40 | 55.94915 | -3.37496 | 111 ft | 88 kts | 239° |
| 2026-04-26 08:40 | 55.94742 | -3.38012 | 114 ft | 11 kts | 236° |
| 2026-04-26 08:41 | 55.94682 | -3.38050 | 114 ft | 9 kts | 156° |
| 2026-04-26 08:41 | 55.94638 | -3.37999 | 113 ft | 6 kts | 146° |
| 2026-04-26 08:41 | 55.94608 | -3.37964 | 112 ft | 4 kts | 147° |
| 2026-04-26 08:41 | 55.94592 | -3.37927 | 114 ft | 5 kts | 114° |
| 2026-04-26 08:42 | 55.94607 | -3.37836 | 114 ft | 11 kts | 57° |
| 2026-04-26 08:42 | 55.94657 | -3.37691 | 113 ft | 17 kts | 59° |
| 2026-04-26 08:42 | 55.94726 | -3.37487 | 116 ft | 21 kts | 58° |
| 2026-04-26 08:42 | 55.94809 | -3.37242 | 116 ft | 25 kts | 58° |
| 2026-04-26 08:43 | 55.94900 | -3.36976 | 116 ft | 25 kts | 60° |
| 2026-04-26 08:43 | 55.94984 | -3.36727 | 113 ft | 23 kts | 59° |
| 2026-04-26 08:43 | 55.95070 | -3.36474 | 115 ft | 21 kts | 58° |
| 2026-04-26 08:43 | 55.95130 | -3.36293 | 114 ft | 17 kts | 65° |
| 2026-04-26 08:44 | 55.95118 | -3.36133 | 115 ft | 16 kts | 110° |
| 2026-04-26 08:44 | 55.95081 | -3.35952 | 115 ft | 17 kts | 116° |
| 2026-04-26 08:44 | 55.95037 | -3.35833 | 113 ft | 9 kts | 149° |
| 2026-04-26 08:44 | 55.94961 | -3.35862 | 114 ft | 13 kts | 181° |
| 2026-04-26 08:45 | 55.94909 | -3.35781 | 116 ft | 4 kts | 118° |
| 2026-04-26 08:45 | 55.94871 | -3.35768 | 114 ft | 9 kts | 207° |
| 2026-04-26 08:45 | 55.94837 | -3.35804 | 113 ft | 4 kts | 209° |
| 2026-04-26 08:45 | 55.94834 | -3.35806 | 114 ft | 0 kts | 208° |